Dades meteomassalio
Diari Summary for Octubre 20, 2017 Units:  Metric    English   Both
« Previous Day
Next Day »
Diari Semanal Mensual Anual Personalitzat
  Maxima: Minima: Mijana:
Temperatura: 22.8 °C 7.2 °C 15.2 °C
Rosada: 11.0 °C 3.8 °C 8 °C
Humitat: 83 % 45 % 64 %
Velocitat del vent: 29.6 km/h 0.0 km/h 5.6 km/h
Racha vent: 29.6 km/h - -
Vent:- - WSW
Pressio: 1023.2 hPa 1015.8 hPa -
Pluja: 0.0 mm    
Historical Graphs
 
 
Tabular Data for Octubre 20, 2017
Time Temperature Dew Point Pressure Wind Wind Speed Wind Gust Humidity Rainfall Rate (Hourly) solar Conditions
00:00 15.6 °C 9.7 °C 1015.8 hPa WSW 24.1 km/h 24.1 km/h 68 % 0.0 mm 0.0 W/m2 CLR
00:05 15.6 °C 9.7 °C 1015.8 hPa SW 25.9 km/h 25.9 km/h 68 % 0.0 mm 0.0 W/m2 CLR
00:10 15.6 °C 9.7 °C 1015.8 hPa SW 24.1 km/h 24.1 km/h 68 % 0.0 mm 0.0 W/m2 CLR
00:15 15.6 °C 9.7 °C 1015.8 hPa SW 29.0 km/h 29.0 km/h 68 % 0.0 mm 0.0 W/m2 CLR
00:20 15.6 °C 9.7 °C 1015.8 hPa WSW 24.1 km/h 24.1 km/h 68 % 0.0 mm 0.0 W/m2 CLR
00:25 15.6 °C 9.7 °C 1015.8 hPa WSW 25.9 km/h 25.9 km/h 68 % 0.0 mm 0.0 W/m2 CLR
00:30 15.6 °C 9.7 °C 1016.1 hPa WSW 25.9 km/h 25.9 km/h 68 % 0.0 mm 0.0 W/m2 CLR
00:35 15.6 °C 9.7 °C 1016.1 hPa WSW 25.7 km/h 25.7 km/h 68 % 0.0 mm 0.0 W/m2 CLR
00:41 15.6 °C 9.9 °C 1016.1 hPa WSW 22.2 km/h 22.2 km/h 69 % 0.0 mm 0.0 W/m2 CLR
00:46 15.6 °C 9.9 °C 1016.1 hPa WSW 29.6 km/h 29.6 km/h 69 % 0.0 mm 0.0 W/m2 CLR
00:51 15.6 °C 9.9 °C 1016.1 hPa SW 27.8 km/h 27.8 km/h 69 % 0.0 mm 0.0 W/m2 CLR
00:56 15.6 °C 10.1 °C 1016.5 hPa WSW 25.9 km/h 25.9 km/h 70 % 0.0 mm 0.0 W/m2 CLR
01:01 15.6 °C 10.1 °C 1016.5 hPa WSW 29.6 km/h 29.6 km/h 70 % 0.0 mm 0.0 W/m2 CLR
01:06 15.6 °C 10.1 °C 1016.5 hPa WSW 24.1 km/h 24.1 km/h 70 % 0.0 mm 0.0 W/m2 CLR
01:11 15.6 °C 9.9 °C 1016.8 hPa WSW 27.8 km/h 27.8 km/h 69 % 0.0 mm 0.0 W/m2 CLR
01:16 15.6 °C 9.9 °C 1016.8 hPa WSW 27.4 km/h 27.4 km/h 69 % 0.0 mm 0.0 W/m2 CLR
01:21 15.6 °C 10.1 °C 1016.8 hPa SW 22.2 km/h 22.2 km/h 70 % 0.0 mm 0.0 W/m2 CLR
01:26 15.6 °C 9.9 °C 1016.8 hPa SW 22.5 km/h 22.5 km/h 69 % 0.0 mm 0.0 W/m2 CLR
01:31 15.6 °C 9.9 °C 1016.8 hPa SW 18.5 km/h 18.5 km/h 69 % 0.0 mm 0.0 W/m2 CLR
01:36 15.6 °C 9.9 °C 1016.8 hPa SSW 27.8 km/h 27.8 km/h 69 % 0.0 mm 0.0 W/m2 CLR
01:41 15.6 °C 9.9 °C 1016.8 hPa SW 27.4 km/h 27.4 km/h 69 % 0.0 mm 0.0 W/m2 CLR
01:46 15.6 °C 9.9 °C 1016.8 hPa SW 18.5 km/h 18.5 km/h 69 % 0.0 mm 0.0 W/m2 CLR
01:51 15.6 °C 9.9 °C 1016.8 hPa SW 16.7 km/h 16.7 km/h 69 % 0.0 mm 0.0 W/m2 CLR
01:56 15.6 °C 9.9 °C 1016.8 hPa SW 18.5 km/h   69 % 0.0 mm 0.0 W/m2 CLR
02:01 15.0 °C 9.3 °C 1016.8 hPa SSW 14.8 km/h 14.8 km/h 69 % 0.0 mm 0.0 W/m2 CLR
02:06 15.0 °C 9.3 °C 1016.8 hPa Calm     69 % 0.0 mm 0.0 W/m2 CLR
02:11 15.0 °C 9.3 °C 1017.2 hPa Calm     69 % 0.0 mm 0.0 W/m2 CLR
02:16 15.0 °C 9.3 °C 1016.8 hPa Calm     69 % 0.0 mm 0.0 W/m2 CLR
02:21 14.4 °C 8.8 °C 1017.2 hPa Calm     69 % 0.0 mm 0.0 W/m2 CLR
02:26 14.4 °C 8.8 °C 1017.2 hPa Calm     69 % 0.0 mm 0.0 W/m2 CLR
02:31 13.9 °C 8.3 °C 1017.2 hPa Calm     69 % 0.0 mm 0.0 W/m2 CLR
02:36 13.9 °C 8.3 °C 1017.2 hPa SW 9.3 km/h   69 % 0.0 mm 0.0 W/m2 CLR
02:41 13.9 °C 8.1 °C 1017.2 hPa SW 9.3 km/h   68 % 0.0 mm 0.0 W/m2 CLR
02:46 13.9 °C 8.1 °C 1017.2 hPa SW 11.1 km/h 11.1 km/h 68 % 0.0 mm 0.0 W/m2 CLR
02:51 13.9 °C 8.1 °C 1017.2 hPa WSW 19.3 km/h 19.3 km/h 68 % 0.0 mm 0.0 W/m2 CLR
02:56 14.4 °C 8.4 °C 1017.2 hPa SSW 18.5 km/h 18.5 km/h 67 % 0.0 mm 0.0 W/m2 CLR
03:01 14.4 °C 8.4 °C 1017.2 hPa SSW 18.5 km/h 18.5 km/h 67 % 0.0 mm 0.0 W/m2 CLR
03:06 15.0 °C 8.9 °C 1017.2 hPa SW 18.5 km/h 18.5 km/h 67 % 0.0 mm 0.0 W/m2 CLR
03:11 15.0 °C 8.9 °C 1017.5 hPa SSW 16.7 km/h 16.7 km/h 67 % 0.0 mm 0.0 W/m2 CLR
03:16 14.4 °C 8.4 °C 1017.5 hPa SSW 14.5 km/h 14.5 km/h 67 % 0.0 mm 0.0 W/m2 CLR
03:21 14.4 °C 8.4 °C 1017.5 hPa SW 24.1 km/h 24.1 km/h 67 % 0.0 mm 0.0 W/m2 CLR
03:26 14.4 °C 8.4 °C 1017.5 hPa SSW 18.5 km/h 18.5 km/h 67 % 0.0 mm 0.0 W/m2 CLR
03:31 14.4 °C 8.4 °C 1017.5 hPa SW 17.7 km/h 17.7 km/h 67 % 0.0 mm 0.0 W/m2 CLR
03:36 14.4 °C 8.4 °C 1017.5 hPa SW 16.7 km/h 16.7 km/h 67 % 0.0 mm 0.0 W/m2 CLR
03:41 14.4 °C 8.2 °C 1017.5 hPa SW 17.7 km/h 17.7 km/h 66 % 0.0 mm 0.0 W/m2 CLR
03:46 14.4 °C 8.2 °C 1017.5 hPa SSW 22.2 km/h 22.2 km/h 66 % 0.0 mm 0.0 W/m2 CLR
03:51 14.4 °C 8.2 °C 1017.5 hPa SW 18.5 km/h 18.5 km/h 66 % 0.0 mm 0.0 W/m2 CLR
03:56 14.4 °C 8.2 °C 1017.5 hPa SW 14.8 km/h 14.8 km/h 66 % 0.0 mm 0.0 W/m2 CLR
04:01 14.4 °C 8.2 °C 1017.5 hPa SSW 14.5 km/h 14.5 km/h 66 % 0.0 mm 0.0 W/m2 CLR
04:06 14.4 °C 8.2 °C 1017.5 hPa SSW 18.5 km/h 18.5 km/h 66 % 0.0 mm 0.0 W/m2 CLR
04:11 13.9 °C 7.8 °C 1017.5 hPa SW 16.1 km/h 16.1 km/h 67 % 0.0 mm 0.0 W/m2 CLR
04:16 13.9 °C 7.8 °C 1017.5 hPa SW 22.5 km/h 22.5 km/h 67 % 0.0 mm 0.0 W/m2 CLR
04:21 13.9 °C 7.8 °C 1017.5 hPa SSW 16.7 km/h 16.7 km/h 67 % 0.0 mm 0.0 W/m2 CLR
04:26 13.9 °C 7.8 °C 1017.5 hPa Calm   0.6 km/h 67 % 0.0 mm 0.0 W/m2 CLR
04:32 13.3 °C 7.6 °C 1017.5 hPa SW 1.9 km/h   68 % 0.0 mm 0.0 W/m2 CLR
04:37 13.9 °C 7.8 °C 1017.8 hPa Calm     67 % 0.0 mm 0.0 W/m2 CLR
04:42 13.3 °C 7.6 °C 1017.8 hPa Calm     68 % 0.0 mm 0.0 W/m2 CLR
04:47 12.8 °C 7.0 °C 1017.8 hPa Calm     68 % 0.0 mm 0.0 W/m2 CLR
04:52 12.2 °C 6.5 °C 1017.8 hPa Calm     68 % 0.0 mm 0.0 W/m2 CLR
04:57 12.2 °C 6.7 °C 1017.8 hPa Calm     69 % 0.0 mm 0.0 W/m2 CLR
05:02 12.2 °C 6.7 °C 1017.8 hPa Calm     69 % 0.0 mm 0.0 W/m2 CLR
05:07 12.8 °C 7.2 °C 1017.8 hPa Calm     69 % 0.0 mm 0.0 W/m2 CLR
05:12 12.8 °C 7.2 °C 1017.8 hPa Calm     69 % 0.0 mm 0.0 W/m2 CLR
05:17 12.2 °C 6.9 °C 1017.8 hPa Calm     70 % 0.0 mm 0.0 W/m2 CLR
05:21 12.2 °C 6.7 °C 1017.8 hPa Calm     69 % 0.0 mm 0.0 W/m2 CLR
05:25 11.7 °C 6.4 °C 1017.8 hPa Calm     70 % 0.0 mm 0.0 W/m2 CLR
05:30 11.7 °C 6.4 °C 1018.2 hPa Calm     70 % 0.0 mm 0.0 W/m2 CLR
05:31 11.7 °C 6.4 °C 1018.2 hPa Calm     70 % 0.0 mm 0.0 W/m2 CLR
05:36 11.7 °C 6.4 °C 1018.2 hPa Calm     70 % 0.0 mm 0.0 W/m2 CLR
05:41 11.1 °C 5.8 °C 1018.2 hPa Calm     70 % 0.0 mm 0.0 W/m2 CLR
05:46 11.1 °C 6.1 °C 1018.2 hPa Calm     71 % 0.0 mm 0.0 W/m2 CLR
05:51 11.1 °C 6.1 °C 1018.2 hPa Calm     71 % 0.0 mm 0.0 W/m2 CLR
05:56 11.1 °C 6.1 °C 1018.2 hPa Calm     71 % 0.0 mm 0.0 W/m2 CLR
06:01 10.6 °C 5.5 °C 1018.2 hPa Calm     71 % 0.0 mm 0.0 W/m2 CLR
06:06 10.6 °C 5.5 °C 1018.2 hPa Calm     71 % 0.0 mm 0.0 W/m2 CLR
06:11 10.6 °C 5.5 °C 1018.2 hPa Calm     71 % 0.0 mm 0.0 W/m2 CLR
06:16 10.6 °C 5.5 °C 1018.2 hPa Calm     71 % 0.0 mm 0.0 W/m2 CLR
06:21 10.6 °C 5.5 °C 1018.5 hPa Calm     71 % 0.0 mm 0.0 W/m2 CLR
06:26 10.6 °C 5.7 °C 1018.2 hPa Calm     72 % 0.0 mm 0.0 W/m2 CLR
06:31 10.6 °C 5.7 °C 1018.5 hPa Calm     72 % 0.0 mm 0.0 W/m2 CLR
06:36 10.0 °C 5.2 °C 1018.5 hPa Calm     72 % 0.0 mm 0.0 W/m2 CLR
06:41 10.0 °C 5.4 °C 1018.5 hPa Calm     73 % 0.0 mm 0.0 W/m2 CLR
06:46 10.0 °C 5.4 °C 1018.5 hPa Calm     73 % 0.0 mm 0.0 W/m2 CLR
06:51 9.4 °C 4.8 °C 1018.5 hPa Calm     73 % 0.0 mm 0.0 W/m2 CLR
06:56 9.4 °C 4.8 °C 1018.5 hPa Calm     73 % 0.0 mm 0.0 W/m2 CLR
07:01 9.4 °C 5.1 °C 1018.5 hPa Calm     74 % 0.0 mm 0.0 W/m2 CLR
07:06 8.9 °C 4.5 °C 1018.8 hPa Calm     74 % 0.0 mm 0.0 W/m2 CLR
07:11 8.9 °C 4.7 °C 1018.5 hPa Calm     75 % 0.0 mm 0.0 W/m2 CLR
07:16 8.9 °C 4.5 °C 1018.8 hPa Calm     74 % 0.0 mm 0.0 W/m2 CLR
07:21 8.3 °C 3.9 °C 1019.2 hPa Calm     74 % 0.0 mm 0.0 W/m2 CLR
07:26 8.3 °C 3.9 °C 1019.2 hPa Calm     74 % 0.0 mm 0.0 W/m2 CLR
07:31 8.3 °C 3.9 °C 1019.2 hPa Calm     74 % 0.0 mm 0.0 W/m2 CLR
07:36 8.3 °C 4.2 °C 1019.2 hPa Calm     75 % 0.0 mm 0.0 W/m2 CLR
07:41 8.3 °C 4.2 °C 1019.2 hPa Calm     75 % 0.0 mm 0.0 W/m2 CLR
07:46 7.8 °C 3.8 °C 1019.2 hPa Calm     76 % 0.0 mm 0.0 W/m2 CLR
07:51 7.8 °C 3.8 °C 1019.5 hPa Calm     76 % 0.0 mm 0.0 W/m2 CLR
07:56 7.8 °C 4.0 °C 1019.5 hPa Calm     77 % 0.0 mm 0.0 W/m2 CLR
08:01 7.8 °C 4.2 °C 1019.5 hPa Calm     78 % 0.0 mm 0.0 W/m2 CLR
08:06 7.8 °C 4.4 °C 1019.9 hPa Calm     79 % 0.0 mm 0.0 W/m2 CLR
08:11 7.8 °C 4.4 °C 1019.9 hPa Calm     79 % 0.0 mm 0.0 W/m2 OVC
08:16 7.2 °C 3.8 °C 1019.5 hPa Calm     79 % 0.0 mm 5.0 W/m2 OVC
08:21 7.2 °C 3.8 °C 1019.5 hPa Calm     79 % 0.0 mm 0.0 W/m2 OVC
08:26 7.2 °C 3.8 °C 1019.9 hPa Calm     79 % 0.0 mm 5.0 W/m2 OVC
08:31 7.2 °C 4.0 °C 1019.9 hPa Calm     80 % 0.0 mm 12.0 W/m2 BKN
08:36 7.2 °C 4.0 °C 1019.9 hPa Calm     80 % 0.0 mm 25.0 W/m2 BKN
08:41 7.2 °C 4.3 °C 1019.9 hPa Calm     82 % 0.0 mm 35.0 W/m2 BKN
08:46 7.8 °C 4.9 °C 1020.2 hPa Calm     82 % 0.0 mm 39.0 W/m2 BKN
08:51 7.8 °C 5.1 °C 1020.2 hPa Calm     83 % 0.0 mm 40.0 W/m2 BKN
08:56 7.8 °C 5.1 °C 1020.5 hPa Calm     83 % 0.0 mm 40.0 W/m2 BKN
09:01 8.3 °C 5.6 °C 1020.5 hPa Calm     83 % 0.0 mm 53.0 W/m2 SCT
09:06 8.3 °C 5.6 °C 1020.9 hPa Calm     83 % 0.0 mm 93.0 W/m2 CLR
09:11 8.9 °C 6.0 °C 1020.9 hPa Calm     82 % 0.0 mm 91.0 W/m2 CLR
09:16 8.9 °C 6.0 °C 1020.9 hPa Calm     82 % 0.0 mm 83.0 W/m2 FEW
09:21 9.4 °C 6.3 °C 1020.9 hPa Calm     81 % 0.0 mm 109.0 W/m2 CLR
09:26 10.0 °C 6.9 °C 1020.9 hPa Calm     81 % 0.0 mm 98.0 W/m2 CLR
09:31 10.6 °C 7.2 °C 1020.9 hPa Calm     80 % 0.0 mm 179.0 W/m2 CLR
09:36 11.7 °C 7.9 °C 1020.9 hPa Calm     78 % 0.0 mm 137.0 W/m2 CLR
09:41 11.7 °C 7.8 °C 1020.9 hPa Calm     77 % 0.0 mm 107.0 W/m2 CLR
09:46 12.2 °C 8.1 °C 1021.2 hPa Calm     76 % 0.0 mm 188.0 W/m2 CLR
09:51 12.2 °C 7.5 °C 1021.2 hPa Calm     73 % 0.0 mm 244.0 W/m2 CLR
09:56 12.8 °C 8.1 °C 1021.2 hPa Calm     73 % 0.0 mm 139.0 W/m2 CLR
10:01 13.3 °C 8.2 °C 1021.6 hPa Calm     71 % 0.0 mm 206.0 W/m2 CLR
10:06 13.3 °C 7.8 °C 1021.6 hPa Calm     69 % 0.0 mm 257.0 W/m2 CLR
10:11 13.3 °C 7.6 °C 1021.6 hPa Calm     68 % 0.0 mm 323.0 W/m2 CLR
10:16 13.9 °C 7.6 °C 1021.6 hPa Calm     66 % 0.0 mm 246.0 W/m2 CLR
10:21 14.4 °C 7.9 °C 1021.6 hPa Calm     65 % 0.0 mm 221.0 W/m2 CLR
10:26 14.4 °C 7.7 °C 1021.6 hPa Calm     64 % 0.0 mm 267.0 W/m2 CLR
10:31 15.0 °C 8.0 °C 1021.6 hPa Calm     63 % 0.0 mm 290.0 W/m2 CLR
10:36 15.6 °C 8.6 °C 1021.6 hPa Calm     63 % 0.0 mm 345.0 W/m2 CLR
10:41 16.1 °C 8.8 °C 1021.6 hPa Calm     62 % 0.0 mm 285.0 W/m2 CLR
10:46 16.1 °C 8.8 °C 1021.6 hPa Calm     62 % 0.0 mm 352.0 W/m2 CLR
10:51 16.1 °C 8.8 °C 1021.9 hPa Calm     62 % 0.0 mm 404.0 W/m2 CLR
10:56 16.1 °C 7.3 °C 1021.6 hPa Calm     56 % 0.0 mm 422.0 W/m2 CLR
10:57 16.7 °C 7.8 °C 1021.6 hPa Calm     56 % 0.0 mm 330.0 W/m2 CLR
11:02 16.7 °C 7.8 °C 1021.6 hPa Calm     56 % 0.0 mm 483.0 W/m2 CLR
11:07 17.2 °C 8.4 °C 1021.9 hPa Calm     56 % 0.0 mm 452.0 W/m2 CLR
11:12 17.2 °C 7.8 °C 1021.9 hPa Calm     54 % 0.0 mm 485.0 W/m2 CLR
11:17 17.2 °C 7.6 °C 1021.9 hPa Calm     53 % 0.0 mm 141.0 W/m2 CLR
11:22 17.2 °C 7.3 °C 1021.6 hPa Calm     52 % 0.0 mm 459.0 W/m2 CLR
11:27 17.8 °C 8.1 °C 1021.9 hPa SW 5.6 km/h   53 % 0.0 mm 464.0 W/m2 CLR
11:32 17.8 °C 8.1 °C 1021.9 hPa WSW 7.4 km/h 7.4 km/h 53 % 0.0 mm 476.0 W/m2 CLR
11:37 18.3 °C 8.3 °C 1021.9 hPa WSW 9.3 km/h 9.3 km/h 52 % 0.0 mm 480.0 W/m2 CLR
11:42 18.3 °C 8.3 °C 1021.9 hPa SW 13.0 km/h 13.0 km/h 52 % 0.0 mm 496.0 W/m2 CLR
11:47 18.9 °C 9.1 °C 1021.9 hPa South 9.7 km/h 9.7 km/h 53 % 0.0 mm 504.0 W/m2 CLR
11:52 18.9 °C 8.5 °C 1021.9 hPa South 9.3 km/h 9.3 km/h 51 % 0.0 mm 512.0 W/m2 CLR
11:57 18.9 °C 8.8 °C 1021.9 hPa SSW 5.6 km/h 5.6 km/h 52 % 0.0 mm 524.0 W/m2 CLR
12:02 18.9 °C 8.8 °C 1021.9 hPa WSW 8.0 km/h 8.0 km/h 52 % 0.0 mm 534.0 W/m2 CLR
12:07 18.9 °C 8.5 °C 1021.9 hPa West 9.3 km/h 9.3 km/h 51 % 0.0 mm 547.0 W/m2 CLR
12:12 18.9 °C 8.8 °C 1021.9 hPa Calm     52 % 0.0 mm 589.0 W/m2 CLR
12:17 19.4 °C 8.7 °C 1021.9 hPa SW 5.6 km/h   50 % 0.0 mm 577.0 W/m2 CLR
12:22 19.4 °C 8.4 °C 1021.9 hPa SW 13.0 km/h 13.0 km/h 49 % 0.0 mm 580.0 W/m2 CLR
12:27 20.0 °C 9.3 °C 1021.9 hPa West 14.5 km/h 14.5 km/h 50 % 0.0 mm 582.0 W/m2 CLR
12:32 20.0 °C 8.9 °C 1021.9 hPa West 9.3 km/h 9.3 km/h 49 % 0.0 mm 585.0 W/m2 CLR
12:37 20.0 °C 9.3 °C 1021.9 hPa West 16.7 km/h 16.7 km/h 50 % 0.0 mm 585.0 W/m2 CLR
12:43 20.6 °C 9.4 °C 1021.9 hPa WSW 14.8 km/h 14.8 km/h 49 % 0.0 mm 589.0 W/m2 CLR
12:48 20.6 °C 9.8 °C 1021.9 hPa SSW 7.4 km/h 7.4 km/h 50 % 0.0 mm 589.0 W/m2 CLR
12:53 20.6 °C 9.2 °C 1021.9 hPa SSW 14.8 km/h 14.8 km/h 48 % 0.0 mm 591.0 W/m2 CLR
12:58 21.1 °C 10.3 °C 1021.9 hPa SW 5.6 km/h   50 % 0.0 mm 596.0 W/m2 CLR
13:03 21.1 °C 10.0 °C 1021.9 hPa SW 7.4 km/h 7.4 km/h 49 % 0.0 mm 599.0 W/m2 CLR
13:08 21.1 °C 10.0 °C 1021.9 hPa South 9.3 km/h 9.3 km/h 49 % 0.0 mm 603.0 W/m2 CLR
13:13 21.1 °C 9.7 °C 1021.9 hPa South 11.1 km/h 11.1 km/h 48 % 0.0 mm 605.0 W/m2 CLR
13:18 21.1 °C 9.7 °C 1021.9 hPa South 11.1 km/h   48 % 0.0 mm 608.0 W/m2 CLR
13:23 21.1 °C 9.7 °C 1021.9 hPa SW 5.6 km/h 5.6 km/h 48 % 0.0 mm 612.0 W/m2 CLR
13:28 21.1 °C 10.0 °C 1021.6 hPa SW 8.0 km/h 8.0 km/h 49 % 0.0 mm 613.0 W/m2 CLR
13:33 21.1 °C 9.7 °C 1021.6 hPa WSW 3.7 km/h   48 % 0.0 mm 617.0 W/m2 CLR
13:38 21.7 °C 10.8 °C 1021.6 hPa Calm     50 % 0.0 mm 622.0 W/m2 CLR
13:43 21.7 °C 10.2 °C 1021.6 hPa SSW 13.0 km/h 13.0 km/h 48 % 0.0 mm 624.0 W/m2 CLR
13:48 21.7 °C 10.2 °C 1021.6 hPa Calm     48 % 0.0 mm 629.0 W/m2 CLR
13:53 21.7 °C 9.8 °C 1021.6 hPa WSW 7.4 km/h 7.4 km/h 47 % 0.0 mm 633.0 W/m2 CLR
13:58 21.7 °C 10.5 °C 1021.6 hPa SW 11.1 km/h 11.1 km/h 49 % 0.0 mm 628.0 W/m2 CLR
14:03 21.1 °C 9.7 °C 1021.6 hPa WNW 14.8 km/h 14.8 km/h 48 % 0.0 mm 629.0 W/m2 CLR
14:08 21.7 °C 10.8 °C 1021.6 hPa West 16.7 km/h 16.7 km/h 50 % 0.0 mm 631.0 W/m2 CLR
14:13 21.1 °C 10.0 °C 1021.6 hPa WSW 11.1 km/h 11.1 km/h 49 % 0.0 mm 615.0 W/m2 CLR
14:18 21.1 °C 10.0 °C 1021.6 hPa NNW 7.4 km/h   49 % 0.0 mm 610.0 W/m2 CLR
14:23 21.1 °C 9.7 °C 1021.6 hPa SW 11.1 km/h 11.1 km/h 48 % 0.0 mm 606.0 W/m2 CLR
14:28 21.7 °C 10.2 °C 1021.6 hPa WSW 11.1 km/h 11.1 km/h 48 % 0.0 mm 606.0 W/m2 CLR
14:33 22.2 °C 10.7 °C 1021.2 hPa West 13.0 km/h 13.0 km/h 48 % 0.0 mm 612.0 W/m2 CLR
14:38 22.2 °C 11.0 °C 1021.2 hPa SW 5.6 km/h 5.6 km/h 49 % 0.0 mm 649.0 W/m2 CLR
14:43 21.7 °C 9.8 °C 1021.2 hPa WNW 13.0 km/h 13.0 km/h 47 % 0.0 mm 621.0 W/m2 CLR
14:48 21.7 °C 10.2 °C 1021.2 hPa West 11.1 km/h   48 % 0.0 mm 670.0 W/m2 CLR
14:53 21.7 °C 9.8 °C 1021.2 hPa WSW 12.9 km/h 12.9 km/h 47 % 0.0 mm 670.0 W/m2 CLR
14:58 22.2 °C 10.4 °C 1021.2 hPa West 5.6 km/h   47 % 0.0 mm 628.0 W/m2 CLR
15:03 22.2 °C 10.7 °C 1021.2 hPa WSW 11.3 km/h 11.3 km/h 48 % 0.0 mm 652.0 W/m2 CLR
15:08 22.2 °C 10.1 °C 1021.2 hPa West 9.3 km/h   46 % 0.0 mm 598.0 W/m2 CLR
15:13 22.2 °C 10.1 °C 1021.2 hPa Calm     46 % 0.0 mm 628.0 W/m2 CLR
15:18 22.2 °C 10.4 °C 1020.9 hPa NW 5.6 km/h 5.6 km/h 47 % 0.0 mm 336.0 W/m2 CLR
15:23 21.7 °C 9.8 °C 1020.9 hPa NW 11.1 km/h 11.1 km/h 47 % 0.0 mm 417.0 W/m2 CLR
15:28 21.7 °C 9.8 °C 1020.9 hPa WNW 9.7 km/h 9.7 km/h 47 % 0.0 mm 714.0 W/m2 CLR
15:33 22.2 °C 10.1 °C 1020.9 hPa WNW 3.7 km/h 3.7 km/h 46 % 0.0 mm 766.0 W/m2 CLR
15:38 22.2 °C 10.1 °C 1020.9 hPa West 7.4 km/h 7.4 km/h 46 % 0.0 mm 691.0 W/m2 CLR
15:43 22.8 °C 10.6 °C 1020.9 hPa West 16.7 km/h 16.7 km/h 46 % 0.0 mm 640.0 W/m2 CLR
15:48 22.8 °C 10.6 °C 1020.9 hPa WSW 5.6 km/h 5.6 km/h 46 % 0.0 mm 422.0 W/m2 CLR
15:53 22.2 °C 10.1 °C 1020.9 hPa WNW 14.8 km/h 14.8 km/h 46 % 0.0 mm 503.0 W/m2 CLR
15:58 22.2 °C 10.1 °C 1020.9 hPa SW 11.1 km/h 11.1 km/h 46 % 0.0 mm 573.0 W/m2 CLR
16:03 22.8 °C 10.6 °C 1020.9 hPa WSW 14.8 km/h 14.8 km/h 46 % 0.0 mm 489.0 W/m2 CLR
16:08 22.2 °C 10.1 °C 1020.9 hPa WNW 3.7 km/h 3.7 km/h 46 % 0.0 mm 494.0 W/m2 CLR
16:13 21.7 °C 9.8 °C 1020.9 hPa NNW 4.8 km/h 4.8 km/h 47 % 0.0 mm 476.0 W/m2 CLR
16:18 22.2 °C 10.1 °C 1020.9 hPa NW 13.0 km/h 13.0 km/h 46 % 0.0 mm 452.0 W/m2 CLR
16:23 22.8 °C 10.6 °C 1020.9 hPa NW 11.1 km/h 11.1 km/h 46 % 0.0 mm 431.0 W/m2 CLR
16:28 22.8 °C 10.6 °C 1020.9 hPa West 5.6 km/h 5.6 km/h 46 % 0.0 mm 418.0 W/m2 CLR
16:33 22.2 °C 9.7 °C 1020.9 hPa West 11.1 km/h 11.1 km/h 45 % 0.0 mm 404.0 W/m2 CLR
16:38 22.2 °C 10.1 °C 1020.9 hPa WSW 5.6 km/h 5.6 km/h 46 % 0.0 mm 392.0 W/m2 CLR
16:43 22.2 °C 9.7 °C 1020.9 hPa WSW 11.1 km/h 11.1 km/h 45 % 0.0 mm 378.0 W/m2 CLR
16:48 22.2 °C 9.7 °C 1020.9 hPa Calm     45 % 0.0 mm 367.0 W/m2 CLR
16:53 22.2 °C 9.7 °C 1020.9 hPa Calm     45 % 0.0 mm 353.0 W/m2 CLR
16:58 22.2 °C 10.1 °C 1020.9 hPa Calm     46 % 0.0 mm 341.0 W/m2 CLR
17:03 22.2 °C 9.7 °C 1020.9 hPa WNW 14.8 km/h 14.8 km/h 45 % 0.0 mm 327.0 W/m2 CLR
17:08 22.2 °C 10.1 °C 1020.5 hPa NW 4.8 km/h 4.8 km/h 46 % 0.0 mm 316.0 W/m2 CLR
17:13 21.7 °C 9.6 °C 1020.5 hPa NW 4.8 km/h 4.8 km/h 46 % 0.0 mm 301.0 W/m2 CLR
17:18 21.7 °C 9.6 °C 1020.9 hPa North 6.4 km/h 6.4 km/h 46 % 0.0 mm 287.0 W/m2 CLR
17:23 21.7 °C 9.6 °C 1020.9 hPa North 7.4 km/h 7.4 km/h 46 % 0.0 mm 269.0 W/m2 CLR
17:28 21.7 °C 9.8 °C 1020.9 hPa North 6.4 km/h 6.4 km/h 47 % 0.0 mm 255.0 W/m2 CLR
17:33 21.7 °C 10.2 °C 1020.9 hPa Calm     48 % 0.0 mm 237.0 W/m2 CLR
17:38 21.7 °C 10.2 °C 1020.5 hPa Calm     48 % 0.0 mm 223.0 W/m2 CLR
17:43 21.7 °C 10.2 °C 1020.5 hPa North 5.6 km/h 5.6 km/h 48 % 0.0 mm 202.0 W/m2 CLR
17:48 21.7 °C 10.5 °C 1020.5 hPa Calm     49 % 0.0 mm 185.0 W/m2 CLR
17:53 21.1 °C 10.0 °C 1020.5 hPa Calm     49 % 0.0 mm 169.0 W/m2 CLR
17:58 21.1 °C 10.0 °C 1020.5 hPa Calm     49 % 0.0 mm 151.0 W/m2 CLR
18:03 21.1 °C 10.0 °C 1020.5 hPa Calm     49 % 0.0 mm 132.0 W/m2 CLR
18:08 21.1 °C 10.0 °C 1020.9 hPa Calm     49 % 0.0 mm 116.0 W/m2 CLR
18:13 20.6 °C 9.4 °C 1020.9 hPa Calm     49 % 0.0 mm 102.0 W/m2 CLR
18:18 20.6 °C 9.8 °C 1020.9 hPa Calm     50 % 0.0 mm 86.0 W/m2 CLR
18:23 20.6 °C 9.8 °C 1020.9 hPa Calm     50 % 0.0 mm 69.0 W/m2 FEW
18:28 20.0 °C 9.6 °C 1020.9 hPa Calm     51 % 0.0 mm 58.0 W/m2 SCT
18:33 19.4 °C 9.1 °C 1020.9 hPa Calm     51 % 0.0 mm 46.0 W/m2 SCT
18:38 18.9 °C 8.5 °C 1020.9 hPa Calm     51 % 0.0 mm 35.0 W/m2 BKN
18:43 18.9 °C 8.5 °C 1020.9 hPa Calm     51 % 0.0 mm 23.0 W/m2 BKN
18:48 17.8 °C 7.5 °C 1020.9 hPa Calm     51 % 0.0 mm 16.0 W/m2 BKN
18:53 17.8 °C 7.5 °C 1020.9 hPa Calm     51 % 0.0 mm 12.0 W/m2 BKN
18:58 16.7 °C 6.8 °C 1021.2 hPa Calm     52 % 0.0 mm 11.0 W/m2 BKN
19:03 16.1 °C 6.5 °C 1021.2 hPa Calm     53 % 0.0 mm 9.0 W/m2 BKN
19:08 16.1 °C 6.5 °C 1021.2 hPa Calm     53 % 0.0 mm 5.0 W/m2 BKN
19:13 15.6 °C 6.3 °C 1021.2 hPa Calm     54 % 0.0 mm 0.0 W/m2 OVC
19:18 15.0 °C 6.0 °C 1021.2 hPa Calm     55 % 0.0 mm 0.0 W/m2 OVC
19:24 15.0 °C 6.0 °C 1021.2 hPa Calm     55 % 0.0 mm 0.0 W/m2 CLR
19:29 14.4 °C 5.8 °C 1021.6 hPa Calm     56 % 0.0 mm 0.0 W/m2 CLR
19:34 14.4 °C 6.0 °C 1021.6 hPa Calm     57 % 0.0 mm 0.0 W/m2 CLR
19:39 14.4 °C 6.0 °C 1021.6 hPa Calm     57 % 0.0 mm 0.0 W/m2 CLR
19:44 13.9 °C 5.8 °C 1021.6 hPa Calm     58 % 0.0 mm 0.0 W/m2 CLR
19:49 14.4 °C 6.5 °C 1021.6 hPa Calm     59 % 0.0 mm 0.0 W/m2 CLR
19:54 14.4 °C 6.8 °C 1021.6 hPa Calm     60 % 0.0 mm 0.0 W/m2 CLR
19:59 14.4 °C 7.2 °C 1021.6 hPa Calm     62 % 0.0 mm 0.0 W/m2 CLR
20:04 14.4 °C 7.5 °C 1021.9 hPa Calm     63 % 0.0 mm 0.0 W/m2 CLR
20:09 14.4 °C 7.7 °C 1021.9 hPa Calm     64 % 0.0 mm 0.0 W/m2 CLR
20:14 14.4 °C 8.2 °C 1021.9 hPa Calm     66 % 0.0 mm 0.0 W/m2 CLR
20:19 13.9 °C 7.8 °C 1021.9 hPa Calm     67 % 0.0 mm 0.0 W/m2 CLR
20:24 13.9 °C 8.1 °C 1021.9 hPa Calm     68 % 0.0 mm 0.0 W/m2 CLR
20:29 13.3 °C 7.8 °C 1021.9 hPa Calm     69 % 0.0 mm 0.0 W/m2 CLR
20:34 13.3 °C 8.0 °C 1021.9 hPa Calm     70 % 0.0 mm 0.0 W/m2 CLR
20:39 12.8 °C 7.4 °C 1021.9 hPa Calm     70 % 0.0 mm 0.0 W/m2 CLR
20:44 12.8 °C 7.7 °C 1021.9 hPa Calm     71 % 0.0 mm 0.0 W/m2 CLR
20:49 12.2 °C 7.1 °C 1021.9 hPa Calm     71 % 0.0 mm 0.0 W/m2 CLR
20:54 12.2 °C 7.3 °C 1022.2 hPa Calm     72 % 0.0 mm 0.0 W/m2 CLR
20:59 12.2 °C 7.3 °C 1022.2 hPa Calm     72 % 0.0 mm 0.0 W/m2 CLR
21:04 11.7 °C 7.0 °C 1022.2 hPa Calm     73 % 0.0 mm 0.0 W/m2 CLR
21:09 11.7 °C 7.2 °C 1022.2 hPa Calm     74 % 0.0 mm 0.0 W/m2 CLR
21:14 11.7 °C 7.2 °C 1022.2 hPa Calm     74 % 0.0 mm 0.0 W/m2 CLR
21:19 11.1 °C 6.8 °C 1022.6 hPa Calm     75 % 0.0 mm 0.0 W/m2 CLR
21:24 11.1 °C 6.8 °C 1022.2 hPa Calm     75 % 0.0 mm 0.0 W/m2 CLR
21:29 11.1 °C 7.1 °C 1022.2 hPa Calm     76 % 0.0 mm 0.0 W/m2 CLR
21:34 11.1 °C 7.1 °C 1022.6 hPa Calm     76 % 0.0 mm 0.0 W/m2 CLR
21:39 10.6 °C 6.7 °C 1022.6 hPa Calm     77 % 0.0 mm 0.0 W/m2 CLR
21:44 10.6 °C 6.7 °C 1022.6 hPa Calm     77 % 0.0 mm 0.0 W/m2 CLR
21:49 10.6 °C 6.9 °C 1022.6 hPa Calm     78 % 0.0 mm 0.0 W/m2 CLR
21:54 10.6 °C 6.9 °C 1022.6 hPa Calm     78 % 0.0 mm 0.0 W/m2 CLR
21:59 10.6 °C 6.9 °C 1022.6 hPa Calm     78 % 0.0 mm 0.0 W/m2 CLR
22:04 11.1 °C 7.6 °C 1022.6 hPa Calm     79 % 0.0 mm 0.0 W/m2 CLR
22:09 11.1 °C 7.6 °C 1022.9 hPa Calm     79 % 0.0 mm 0.0 W/m2 CLR
22:14 11.1 °C 7.6 °C 1022.9 hPa Calm     79 % 0.0 mm 0.0 W/m2 CLR
22:19 11.7 °C 8.2 °C 1022.9 hPa Calm     79 % 0.0 mm 0.0 W/m2 CLR
22:24 11.7 °C 8.3 °C 1022.9 hPa Calm     80 % 0.0 mm 0.0 W/m2 CLR
22:29 11.1 °C 7.8 °C 1022.9 hPa Calm     80 % 0.0 mm 0.0 W/m2 CLR
22:34 11.1 °C 7.6 °C 1022.9 hPa Calm     79 % 0.0 mm 0.0 W/m2 CLR
22:39 11.1 °C 7.8 °C 1022.9 hPa Calm     80 % 0.0 mm 0.0 W/m2 CLR
22:44 11.1 °C 7.8 °C 1023.2 hPa Calm     80 % 0.0 mm 0.0 W/m2 CLR
22:49 10.6 °C 7.2 °C 1023.2 hPa Calm     80 % 0.0 mm 0.0 W/m2 CLR
22:54 10.6 °C 7.4 °C 1023.2 hPa Calm     81 % 0.0 mm 0.0 W/m2 CLR
22:59 10.6 °C 7.4 °C 1023.2 hPa Calm     81 % 0.0 mm 0.0 W/m2 CLR
23:04 10.6 °C 7.4 °C 1023.2 hPa Calm     81 % 0.0 mm 0.0 W/m2 CLR
23:09 10.6 °C 7.6 °C 1023.2 hPa Calm     82 % 0.0 mm 0.0 W/m2 CLR
23:14 10.6 °C 7.6 °C 1023.2 hPa Calm     82 % 0.0 mm 0.0 W/m2 CLR
23:19 10.6 °C 7.4 °C 1023.2 hPa Calm     81 % 0.0 mm 0.0 W/m2 CLR
23:24 10.6 °C 7.4 °C 1023.2 hPa Calm     81 % 0.0 mm 0.0 W/m2 CLR
23:25 10.6 °C 7.4 °C 1023.2 hPa Calm     81 % 0.0 mm 0.0 W/m2 CLR
23:30 11.1 °C 7.9 °C 1023.2 hPa Calm     81 % 0.0 mm 0.0 W/m2 CLR
23:35 11.1 °C 7.9 °C 1023.2 hPa Calm     81 % 0.0 mm 0.0 W/m2 CLR
23:40 11.1 °C 7.9 °C 1023.2 hPa Calm     81 % 0.0 mm 0.0 W/m2 CLR
23:45 11.1 °C 7.9 °C 1023.2 hPa Calm     81 % 0.0 mm 0.0 W/m2 CLR
23:50 11.1 °C 7.9 °C 1023.2 hPa Calm     81 % 0.0 mm 0.0 W/m2 CLR
23:55 11.1 °C 7.9 °C 1023.2 hPa Calm     81 % 0.0 mm 0.0 W/m2 CLR
Lo Temps de Massalio
Compliments of Weather Underground - 1.25 mb